sensor_id;sensor_type;location;lat;lon;timestamp;temperature;humidity
44817;DHT22;30529;53.570;9.964;2023-03-23T00:01:26;11.40;99.90
44817;DHT22;30529;53.570;9.964;2023-03-23T00:03:56;11.30;99.90
44817;DHT22;30529;53.570;9.964;2023-03-23T00:06:24;11.20;99.90
44817;DHT22;30529;53.570;9.964;2023-03-23T00:08:52;11.20;99.90
44817;DHT22;30529;53.570;9.964;2023-03-23T00:11:24;11.20;99.90
44817;DHT22;30529;53.570;9.964;2023-03-23T00:13:52;11.20;99.90
44817;DHT22;30529;53.570;9.964;2023-03-23T00:16:24;11.20;99.90
44817;DHT22;30529;53.570;9.964;2023-03-23T00:19:00;11.20;99.90
44817;DHT22;30529;53.570;9.964;2023-03-23T00:21:30;11.10;99.90
44817;DHT22;30529;53.570;9.964;2023-03-23T00:26:35;11.10;99.90
44817;DHT22;30529;53.570;9.964;2023-03-23T00:29:06;11.00;99.90
44817;DHT22;30529;53.570;9.964;2023-03-23T00:31:32;11.00;99.90
44817;DHT22;30529;53.570;9.964;2023-03-23T00:34:02;10.90;99.90
44817;DHT22;30529;53.570;9.964;2023-03-23T00:36:33;11.00;99.90
44817;DHT22;30529;53.570;9.964;2023-03-23T00:39:03;11.00;99.90
44817;DHT22;30529;53.570;9.964;2023-03-23T00:41:30;11.00;99.90
44817;DHT22;30529;53.570;9.964;2023-03-23T00:43:58;11.00;99.90
44817;DHT22;30529;53.570;9.964;2023-03-23T00:46:28;11.00;99.90
44817;DHT22;30529;53.570;9.964;2023-03-23T00:48:55;10.90;99.90
44817;DHT22;30529;53.570;9.964;2023-03-23T00:51:23;10.90;99.90
44817;DHT22;30529;53.570;9.964;2023-03-23T00:53:50;11.00;99.90
44817;DHT22;30529;53.570;9.964;2023-03-23T00:56:16;11.00;99.90
44817;DHT22;30529;53.570;9.964;2023-03-23T00:58:43;11.00;99.90
44817;DHT22;30529;53.570;9.964;2023-03-23T01:01:09;11.00;99.90
44817;DHT22;30529;53.570;9.964;2023-03-23T01:03:35;11.00;99.90
44817;DHT22;30529;53.570;9.964;2023-03-23T01:06:07;11.00;99.90
44817;DHT22;30529;53.570;9.964;2023-03-23T01:08:34;11.00;99.90
44817;DHT22;30529;53.570;9.964;2023-03-23T01:11:06;11.00;99.90
44817;DHT22;30529;53.570;9.964;2023-03-23T01:13:32;11.00;99.90
44817;DHT22;30529;53.570;9.964;2023-03-23T01:15:58;10.90;99.90
44817;DHT22;30529;53.570;9.964;2023-03-23T01:18:24;11.00;99.90
44817;DHT22;30529;53.570;9.964;2023-03-23T01:20:50;11.00;99.90
44817;DHT22;30529;53.570;9.964;2023-03-23T01:23:16;11.00;99.90
44817;DHT22;30529;53.570;9.964;2023-03-23T01:25:42;11.00;99.90
44817;DHT22;30529;53.570;9.964;2023-03-23T01:28:09;11.00;99.90
44817;DHT22;30529;53.570;9.964;2023-03-23T01:30:36;11.00;99.90
44817;DHT22;30529;53.570;9.964;2023-03-23T01:33:02;11.00;99.90
44817;DHT22;30529;53.570;9.964;2023-03-23T01:35:28;11.00;99.90
44817;DHT22;30529;53.570;9.964;2023-03-23T01:37:54;11.00;99.90
44817;DHT22;30529;53.570;9.964;2023-03-23T01:40:20;11.00;99.90
44817;DHT22;30529;53.570;9.964;2023-03-23T01:42:46;11.00;99.90
44817;DHT22;30529;53.570;9.964;2023-03-23T01:45:34;11.00;99.90
44817;DHT22;30529;53.570;9.964;2023-03-23T01:48:04;11.00;99.90
44817;DHT22;30529;53.570;9.964;2023-03-23T01:50:37;11.10;99.90
44817;DHT22;30529;53.570;9.964;2023-03-23T01:53:06;11.10;99.90
44817;DHT22;30529;53.570;9.964;2023-03-23T01:55:36;11.10;99.90
44817;DHT22;30529;53.570;9.964;2023-03-23T01:58:05;11.10;99.90
44817;DHT22;30529;53.570;9.964;2023-03-23T02:00:31;11.10;99.90
44817;DHT22;30529;53.570;9.964;2023-03-23T02:02:57;11.00;99.90
44817;DHT22;30529;53.570;9.964;2023-03-23T02:05:28;11.00;99.90
44817;DHT22;30529;53.570;9.964;2023-03-23T02:07:58;11.00;99.90
44817;DHT22;30529;53.570;9.964;2023-03-23T02:10:30;11.00;99.90
44817;DHT22;30529;53.570;9.964;2023-03-23T02:13:00;11.00;99.90
44817;DHT22;30529;53.570;9.964;2023-03-23T02:15:37;11.00;99.90
44817;DHT22;30529;53.570;9.964;2023-03-23T02:21:20;11.00;99.90
44817;DHT22;30529;53.570;9.964;2023-03-23T02:24:12;11.00;99.90
44817;DHT22;30529;53.570;9.964;2023-03-23T02:26:55;11.00;99.90
44817;DHT22;30529;53.570;9.964;2023-03-23T02:32:52;10.90;99.90
44817;DHT22;30529;53.570;9.964;2023-03-23T02:35:34;10.90;99.90
44817;DHT22;30529;53.570;9.964;2023-03-23T02:38:06;10.90;99.90
44817;DHT22;30529;53.570;9.964;2023-03-23T02:40:39;10.90;99.90
44817;DHT22;30529;53.570;9.964;2023-03-23T02:43:10;11.00;99.90
44817;DHT22;30529;53.570;9.964;2023-03-23T02:45:37;11.00;99.90
44817;DHT22;30529;53.570;9.964;2023-03-23T02:48:05;11.00;99.90
44817;DHT22;30529;53.570;9.964;2023-03-23T02:50:33;11.00;99.90
44817;DHT22;30529;53.570;9.964;2023-03-23T02:53:01;11.00;99.90
44817;DHT22;30529;53.570;9.964;2023-03-23T02:55:28;11.00;99.90
44817;DHT22;30529;53.570;9.964;2023-03-23T02:57:55;10.90;99.90
44817;DHT22;30529;53.570;9.964;2023-03-23T03:00:22;10.90;99.90
44817;DHT22;30529;53.570;9.964;2023-03-23T03:02:50;11.00;99.90
44817;DHT22;30529;53.570;9.964;2023-03-23T03:05:44;10.90;99.90
44817;DHT22;30529;53.570;9.964;2023-03-23T03:08:24;11.00;99.90
44817;DHT22;30529;53.570;9.964;2023-03-23T03:13:47;11.00;99.90
44817;DHT22;30529;53.570;9.964;2023-03-23T03:16:29;11.00;99.90
44817;DHT22;30529;53.570;9.964;2023-03-23T03:19:24;11.00;99.90
44817;DHT22;30529;53.570;9.964;2023-03-23T03:21:53;11.00;99.90
44817;DHT22;30529;53.570;9.964;2023-03-23T03:24:22;11.00;99.90
44817;DHT22;30529;53.570;9.964;2023-03-23T03:26:52;11.00;99.90
44817;DHT22;30529;53.570;9.964;2023-03-23T03:29:26;11.00;99.90
44817;DHT22;30529;53.570;9.964;2023-03-23T03:31:56;11.00;99.90
44817;DHT22;30529;53.570;9.964;2023-03-23T03:34:24;11.00;99.90
44817;DHT22;30529;53.570;9.964;2023-03-23T03:36:53;10.90;99.90
44817;DHT22;30529;53.570;9.964;2023-03-23T03:39:20;10.90;99.90
44817;DHT22;30529;53.570;9.964;2023-03-23T03:41:47;11.00;99.90
44817;DHT22;30529;53.570;9.964;2023-03-23T03:44:14;11.00;99.90
44817;DHT22;30529;53.570;9.964;2023-03-23T03:46:41;11.10;99.90
44817;DHT22;30529;53.570;9.964;2023-03-23T03:49:09;11.20;99.90
44817;DHT22;30529;53.570;9.964;2023-03-23T03:51:36;11.20;99.90
44817;DHT22;30529;53.570;9.964;2023-03-23T03:54:02;11.20;99.90
44817;DHT22;30529;53.570;9.964;2023-03-23T03:56:28;11.10;99.90
44817;DHT22;30529;53.570;9.964;2023-03-23T03:58:54;11.20;99.90
44817;DHT22;30529;53.570;9.964;2023-03-23T04:01:21;11.20;99.90
44817;DHT22;30529;53.570;9.964;2023-03-23T04:03:51;11.30;99.90
44817;DHT22;30529;53.570;9.964;2023-03-23T04:06:17;11.30;99.90
44817;DHT22;30529;53.570;9.964;2023-03-23T04:08:44;11.30;99.90
44817;DHT22;30529;53.570;9.964;2023-03-23T04:11:13;11.30;99.90
44817;DHT22;30529;53.570;9.964;2023-03-23T04:13:40;11.30;99.90
44817;DHT22;30529;53.570;9.964;2023-03-23T04:16:07;11.20;99.90
44817;DHT22;30529;53.570;9.964;2023-03-23T04:18:33;11.20;99.90
44817;DHT22;30529;53.570;9.964;2023-03-23T04:21:01;11.20;99.90
44817;DHT22;30529;53.570;9.964;2023-03-23T04:23:30;11.20;99.90
44817;DHT22;30529;53.570;9.964;2023-03-23T04:25:57;11.20;99.90
44817;DHT22;30529;53.570;9.964;2023-03-23T04:28:24;11.30;99.90
44817;DHT22;30529;53.570;9.964;2023-03-23T04:30:52;11.30;99.90
44817;DHT22;30529;53.570;9.964;2023-03-23T04:33:24;11.20;99.90
44817;DHT22;30529;53.570;9.964;2023-03-23T04:35:53;11.10;99.90
44817;DHT22;30529;53.570;9.964;2023-03-23T04:38:20;11.10;99.90
44817;DHT22;30529;53.570;9.964;2023-03-23T04:40:48;11.10;99.90
44817;DHT22;30529;53.570;9.964;2023-03-23T04:43:21;11.00;99.90
44817;DHT22;30529;53.570;9.964;2023-03-23T04:45:55;11.00;99.90
44817;DHT22;30529;53.570;9.964;2023-03-23T04:48:25;11.10;99.90
44817;DHT22;30529;53.570;9.964;2023-03-23T04:50:52;11.10;99.90
44817;DHT22;30529;53.570;9.964;2023-03-23T04:53:19;11.10;99.90
44817;DHT22;30529;53.570;9.964;2023-03-23T04:55:46;11.20;99.90
44817;DHT22;30529;53.570;9.964;2023-03-23T04:58:13;11.20;99.90
44817;DHT22;30529;53.570;9.964;2023-03-23T05:00:40;11.20;99.90
44817;DHT22;30529;53.570;9.964;2023-03-23T05:03:10;11.10;99.90
44817;DHT22;30529;53.570;9.964;2023-03-23T05:05:37;11.20;99.90
44817;DHT22;30529;53.570;9.964;2023-03-23T05:08:03;11.20;99.90
44817;DHT22;30529;53.570;9.964;2023-03-23T05:10:29;11.20;99.90
44817;DHT22;30529;53.570;9.964;2023-03-23T05:12:55;11.20;99.90
44817;DHT22;30529;53.570;9.964;2023-03-23T05:15:21;11.30;99.90
44817;DHT22;30529;53.570;9.964;2023-03-23T05:17:47;11.20;99.90
44817;DHT22;30529;53.570;9.964;2023-03-23T05:20:16;11.30;99.90
44817;DHT22;30529;53.570;9.964;2023-03-23T05:22:46;11.30;99.90
44817;DHT22;30529;53.570;9.964;2023-03-23T05:25:17;11.20;99.90
44817;DHT22;30529;53.570;9.964;2023-03-23T05:27:46;11.20;99.90
44817;DHT22;30529;53.570;9.964;2023-03-23T05:30:19;11.30;99.90
44817;DHT22;30529;53.570;9.964;2023-03-23T05:32:46;11.30;99.90
44817;DHT22;30529;53.570;9.964;2023-03-23T05:35:17;11.30;99.90
44817;DHT22;30529;53.570;9.964;2023-03-23T05:37:43;11.30;99.90
44817;DHT22;30529;53.570;9.964;2023-03-23T05:40:09;11.20;99.90
44817;DHT22;30529;53.570;9.964;2023-03-23T05:42:38;11.20;99.90
44817;DHT22;30529;53.570;9.964;2023-03-23T05:45:08;11.20;99.90
44817;DHT22;30529;53.570;9.964;2023-03-23T05:47:35;11.20;99.90
44817;DHT22;30529;53.570;9.964;2023-03-23T05:50:02;11.20;99.90
44817;DHT22;30529;53.570;9.964;2023-03-23T05:52:28;11.10;99.90
44817;DHT22;30529;53.570;9.964;2023-03-23T05:54:54;11.10;99.90
44817;DHT22;30529;53.570;9.964;2023-03-23T05:57:20;11.10;99.90
44817;DHT22;30529;53.570;9.964;2023-03-23T05:59:49;11.10;99.90
44817;DHT22;30529;53.570;9.964;2023-03-23T06:02:15;11.00;99.90
44817;DHT22;30529;53.570;9.964;2023-03-23T06:04:42;11.00;99.90
44817;DHT22;30529;53.570;9.964;2023-03-23T06:07:08;11.00;99.90
44817;DHT22;30529;53.570;9.964;2023-03-23T06:09:38;11.00;99.90
44817;DHT22;30529;53.570;9.964;2023-03-23T06:12:05;11.00;99.90
44817;DHT22;30529;53.570;9.964;2023-03-23T06:14:31;11.00;99.90
44817;DHT22;30529;53.570;9.964;2023-03-23T06:16:57;11.00;99.90
44817;DHT22;30529;53.570;9.964;2023-03-23T06:19:23;10.90;99.90
44817;DHT22;30529;53.570;9.964;2023-03-23T06:21:49;11.00;99.90
44817;DHT22;30529;53.570;9.964;2023-03-23T06:24:15;10.90;99.90
44817;DHT22;30529;53.570;9.964;2023-03-23T06:26:41;10.90;99.90
44817;DHT22;30529;53.570;9.964;2023-03-23T06:29:07;10.90;99.90
44817;DHT22;30529;53.570;9.964;2023-03-23T06:31:45;10.90;99.90
44817;DHT22;30529;53.570;9.964;2023-03-23T06:34:12;10.90;99.90
44817;DHT22;30529;53.570;9.964;2023-03-23T06:36:38;11.00;99.90
44817;DHT22;30529;53.570;9.964;2023-03-23T06:39:05;11.10;99.90
44817;DHT22;30529;53.570;9.964;2023-03-23T06:41:34;11.20;99.90
44817;DHT22;30529;53.570;9.964;2023-03-23T06:44:01;11.30;99.90
44817;DHT22;30529;53.570;9.964;2023-03-23T06:46:27;11.50;99.90
44817;DHT22;30529;53.570;9.964;2023-03-23T06:48:54;11.60;99.90
44817;DHT22;30529;53.570;9.964;2023-03-23T06:51:20;11.70;99.90
44817;DHT22;30529;53.570;9.964;2023-03-23T06:53:47;11.80;99.90
44817;DHT22;30529;53.570;9.964;2023-03-23T06:56:13;11.90;99.90
44817;DHT22;30529;53.570;9.964;2023-03-23T06:58:39;12.00;99.90
44817;DHT22;30529;53.570;9.964;2023-03-23T07:01:08;11.90;99.90
44817;DHT22;30529;53.570;9.964;2023-03-23T07:03:35;11.90;99.90
44817;DHT22;30529;53.570;9.964;2023-03-23T07:06:02;12.00;99.90
44817;DHT22;30529;53.570;9.964;2023-03-23T07:08:29;12.00;99.90
44817;DHT22;30529;53.570;9.964;2023-03-23T07:10:56;12.00;99.90
44817;DHT22;30529;53.570;9.964;2023-03-23T07:13:23;12.00;99.90
44817;DHT22;30529;53.570;9.964;2023-03-23T07:15:49;12.00;99.90
44817;DHT22;30529;53.570;9.964;2023-03-23T07:18:16;12.20;99.90
44817;DHT22;30529;53.570;9.964;2023-03-23T07:20:42;12.20;99.90
44817;DHT22;30529;53.570;9.964;2023-03-23T07:23:09;12.20;99.90
44817;DHT22;30529;53.570;9.964;2023-03-23T07:25:35;12.20;99.90
44817;DHT22;30529;53.570;9.964;2023-03-23T07:28:03;12.20;99.90
44817;DHT22;30529;53.570;9.964;2023-03-23T07:30:29;12.20;99.90
44817;DHT22;30529;53.570;9.964;2023-03-23T07:32:57;12.30;99.90
44817;DHT22;30529;53.570;9.964;2023-03-23T07:35:23;12.50;99.90
44817;DHT22;30529;53.570;9.964;2023-03-23T07:37:50;12.80;99.90
44817;DHT22;30529;53.570;9.964;2023-03-23T07:40:18;13.10;99.90
44817;DHT22;30529;53.570;9.964;2023-03-23T07:42:45;13.30;99.90
44817;DHT22;30529;53.570;9.964;2023-03-23T07:45:15;13.50;99.90
44817;DHT22;30529;53.570;9.964;2023-03-23T07:47:41;13.40;99.90
44817;DHT22;30529;53.570;9.964;2023-03-23T07:50:08;13.10;99.90
44817;DHT22;30529;53.570;9.964;2023-03-23T07:52:35;12.90;99.90
44817;DHT22;30529;53.570;9.964;2023-03-23T07:55:03;12.70;99.90
44817;DHT22;30529;53.570;9.964;2023-03-23T07:57:30;12.60;99.90
44817;DHT22;30529;53.570;9.964;2023-03-23T07:59:57;12.50;99.90
44817;DHT22;30529;53.570;9.964;2023-03-23T08:02:23;12.40;99.90
44817;DHT22;30529;53.570;9.964;2023-03-23T08:04:50;12.50;99.90
44817;DHT22;30529;53.570;9.964;2023-03-23T08:07:17;12.60;99.90
44817;DHT22;30529;53.570;9.964;2023-03-23T08:09:46;12.60;99.90
44817;DHT22;30529;53.570;9.964;2023-03-23T08:12:12;12.60;99.90
44817;DHT22;30529;53.570;9.964;2023-03-23T08:14:38;12.50;99.90
44817;DHT22;30529;53.570;9.964;2023-03-23T08:17:05;12.50;99.90
44817;DHT22;30529;53.570;9.964;2023-03-23T08:19:31;12.50;99.90
44817;DHT22;30529;53.570;9.964;2023-03-23T08:22:03;12.40;99.90
44817;DHT22;30529;53.570;9.964;2023-03-23T08:24:31;12.40;99.90
44817;DHT22;30529;53.570;9.964;2023-03-23T08:26:59;12.40;99.90
44817;DHT22;30529;53.570;9.964;2023-03-23T08:29:25;12.30;99.90
44817;DHT22;30529;53.570;9.964;2023-03-23T08:31:52;12.20;99.90
44817;DHT22;30529;53.570;9.964;2023-03-23T08:34:19;12.00;99.90
44817;DHT22;30529;53.570;9.964;2023-03-23T08:36:45;11.80;99.90
44817;DHT22;30529;53.570;9.964;2023-03-23T08:39:13;11.80;99.90
44817;DHT22;30529;53.570;9.964;2023-03-23T08:41:44;11.90;99.90
44817;DHT22;30529;53.570;9.964;2023-03-23T08:44:10;11.90;99.90
44817;DHT22;30529;53.570;9.964;2023-03-23T08:46:36;12.00;99.90
44817;DHT22;30529;53.570;9.964;2023-03-23T08:49:02;12.30;99.90
44817;DHT22;30529;53.570;9.964;2023-03-23T08:51:28;12.60;99.90
44817;DHT22;30529;53.570;9.964;2023-03-23T08:53:54;12.70;99.90
44817;DHT22;30529;53.570;9.964;2023-03-23T08:56:20;13.00;99.90
44817;DHT22;30529;53.570;9.964;2023-03-23T08:58:46;13.30;99.90
44817;DHT22;30529;53.570;9.964;2023-03-23T09:01:13;13.40;99.90
44817;DHT22;30529;53.570;9.964;2023-03-23T09:03:40;13.20;99.90
44817;DHT22;30529;53.570;9.964;2023-03-23T09:06:08;13.30;99.90
44817;DHT22;30529;53.570;9.964;2023-03-23T09:08:35;13.30;99.90
44817;DHT22;30529;53.570;9.964;2023-03-23T09:11:06;13.30;99.90
44817;DHT22;30529;53.570;9.964;2023-03-23T09:13:37;13.40;99.90
44817;DHT22;30529;53.570;9.964;2023-03-23T09:16:05;13.20;99.90
44817;DHT22;30529;53.570;9.964;2023-03-23T09:18:32;12.90;99.90
44817;DHT22;30529;53.570;9.964;2023-03-23T09:20:59;12.80;99.90
44817;DHT22;30529;53.570;9.964;2023-03-23T09:23:26;12.80;99.90
44817;DHT22;30529;53.570;9.964;2023-03-23T09:25:52;12.80;99.90
44817;DHT22;30529;53.570;9.964;2023-03-23T09:28:18;13.00;99.90
44817;DHT22;30529;53.570;9.964;2023-03-23T09:30:45;13.10;99.90
44817;DHT22;30529;53.570;9.964;2023-03-23T09:33:11;13.10;99.90
44817;DHT22;30529;53.570;9.964;2023-03-23T09:35:37;13.20;99.90
44817;DHT22;30529;53.570;9.964;2023-03-23T09:38:05;13.20;99.90
44817;DHT22;30529;53.570;9.964;2023-03-23T09:40:47;13.20;99.90
44817;DHT22;30529;53.570;9.964;2023-03-23T09:43:33;13.20;99.90
44817;DHT22;30529;53.570;9.964;2023-03-23T09:48:59;13.20;99.90
44817;DHT22;30529;53.570;9.964;2023-03-23T09:51:55;13.20;99.90
44817;DHT22;30529;53.570;9.964;2023-03-23T09:54:47;13.10;99.90
44817;DHT22;30529;53.570;9.964;2023-03-23T09:57:45;13.10;99.90
44817;DHT22;30529;53.570;9.964;2023-03-23T10:03:05;13.60;99.90
44817;DHT22;30529;53.570;9.964;2023-03-23T10:05:36;13.80;99.90
44817;DHT22;30529;53.570;9.964;2023-03-23T10:08:13;13.90;99.90
44817;DHT22;30529;53.570;9.964;2023-03-23T10:10:45;13.90;99.90
44817;DHT22;30529;53.570;9.964;2023-03-23T10:15:49;13.80;99.90
44817;DHT22;30529;53.570;9.964;2023-03-23T10:18:40;13.80;99.90
44817;DHT22;30529;53.570;9.964;2023-03-23T10:21:11;13.90;99.90
44817;DHT22;30529;53.570;9.964;2023-03-23T10:23:47;14.10;99.90
44817;DHT22;30529;53.570;9.964;2023-03-23T10:26:30;14.20;99.90
44817;DHT22;30529;53.570;9.964;2023-03-23T10:31:43;13.80;99.90
44817;DHT22;30529;53.570;9.964;2023-03-23T10:34:31;13.90;99.90
44817;DHT22;30529;53.570;9.964;2023-03-23T10:37:05;14.20;99.90
44817;DHT22;30529;53.570;9.964;2023-03-23T10:39:44;14.70;99.90
44817;DHT22;30529;53.570;9.964;2023-03-23T10:42:11;14.90;99.90
44817;DHT22;30529;53.570;9.964;2023-03-23T10:44:37;14.80;99.90
44817;DHT22;30529;53.570;9.964;2023-03-23T10:47:06;14.80;99.90
44817;DHT22;30529;53.570;9.964;2023-03-23T10:49:42;14.40;99.90
44817;DHT22;30529;53.570;9.964;2023-03-23T10:52:35;14.20;99.90
44817;DHT22;30529;53.570;9.964;2023-03-23T10:57:34;14.20;99.90
44817;DHT22;30529;53.570;9.964;2023-03-23T11:00:20;14.30;99.90
44817;DHT22;30529;53.570;9.964;2023-03-23T11:02:58;14.30;99.90
44817;DHT22;30529;53.570;9.964;2023-03-23T11:05:36;14.50;99.90
44817;DHT22;30529;53.570;9.964;2023-03-23T11:08:13;14.60;99.90
44817;DHT22;30529;53.570;9.964;2023-03-23T11:10:48;14.80;99.90
44817;DHT22;30529;53.570;9.964;2023-03-23T11:13:16;14.90;99.90
44817;DHT22;30529;53.570;9.964;2023-03-23T11:15:44;15.10;99.90
44817;DHT22;30529;53.570;9.964;2023-03-23T11:18:26;15.30;99.90
44817;DHT22;30529;53.570;9.964;2023-03-23T11:20:57;15.40;99.90
44817;DHT22;30529;53.570;9.964;2023-03-23T11:23:28;15.50;99.90
44817;DHT22;30529;53.570;9.964;2023-03-23T11:28:46;15.70;99.90
44817;DHT22;30529;53.570;9.964;2023-03-23T11:31:16;15.50;99.90
44817;DHT22;30529;53.570;9.964;2023-03-23T11:33:58;15.30;99.90
44817;DHT22;30529;53.570;9.964;2023-03-23T11:36:33;15.10;99.90
44817;DHT22;30529;53.570;9.964;2023-03-23T11:38:59;15.10;99.90
44817;DHT22;30529;53.570;9.964;2023-03-23T11:41:31;15.10;99.90
44817;DHT22;30529;53.570;9.964;2023-03-23T11:44:03;15.00;99.90
44817;DHT22;30529;53.570;9.964;2023-03-23T11:49:20;14.50;99.90
44817;DHT22;30529;53.570;9.964;2023-03-23T11:51:55;14.30;99.90
44817;DHT22;30529;53.570;9.964;2023-03-23T11:54:32;14.40;99.90
44817;DHT22;30529;53.570;9.964;2023-03-23T11:56:59;14.20;99.90
44817;DHT22;30529;53.570;9.964;2023-03-23T11:59:31;14.10;99.90
44817;DHT22;30529;53.570;9.964;2023-03-23T12:05:25;13.90;99.90
44817;DHT22;30529;53.570;9.964;2023-03-23T12:10:59;13.90;99.90
44817;DHT22;30529;53.570;9.964;2023-03-23T12:13:45;13.90;99.90
44817;DHT22;30529;53.570;9.964;2023-03-23T12:25:21;14.00;99.90
44817;DHT22;30529;53.570;9.964;2023-03-23T12:31:15;13.80;99.90
44817;DHT22;30529;53.570;9.964;2023-03-23T12:52:21;13.80;99.90
44817;DHT22;30529;53.570;9.964;2023-03-23T12:57:31;14.30;99.90
44817;DHT22;30529;53.570;9.964;2023-03-23T13:07:33;14.90;99.90
44817;DHT22;30529;53.570;9.964;2023-03-23T13:12:35;14.20;99.90
44817;DHT22;30529;53.570;9.964;2023-03-23T13:15:31;13.90;99.90
44817;DHT22;30529;53.570;9.964;2023-03-23T13:20:58;14.10;99.90
44817;DHT22;30529;53.570;9.964;2023-03-23T13:23:34;14.20;99.90
44817;DHT22;30529;53.570;9.964;2023-03-23T13:26:08;14.40;99.90
44817;DHT22;30529;53.570;9.964;2023-03-23T13:31:26;14.30;99.90
44817;DHT22;30529;53.570;9.964;2023-03-23T13:34:22;14.30;99.90
44817;DHT22;30529;53.570;9.964;2023-03-23T13:37:03;14.40;99.90
44817;DHT22;30529;53.570;9.964;2023-03-23T13:39:33;14.40;99.90
44817;DHT22;30529;53.570;9.964;2023-03-23T13:42:23;14.50;99.90
44817;DHT22;30529;53.570;9.964;2023-03-23T13:47:26;14.70;99.90
44817;DHT22;30529;53.570;9.964;2023-03-23T13:49:58;14.50;99.90
44817;DHT22;30529;53.570;9.964;2023-03-23T13:55:21;14.10;99.90
44817;DHT22;30529;53.570;9.964;2023-03-23T14:03:32;13.60;99.90
44817;DHT22;30529;53.570;9.964;2023-03-23T14:10:59;12.40;99.90
44817;DHT22;30529;53.570;9.964;2023-03-23T14:13:33;12.10;99.90
44817;DHT22;30529;53.570;9.964;2023-03-23T14:16:01;11.80;99.90
44817;DHT22;30529;53.570;9.964;2023-03-23T14:18:38;11.70;99.90
44817;DHT22;30529;53.570;9.964;2023-03-23T14:21:05;11.80;99.90
44817;DHT22;30529;53.570;9.964;2023-03-23T14:23:33;11.90;99.90
44817;DHT22;30529;53.570;9.964;2023-03-23T14:26:02;12.00;99.90
44817;DHT22;30529;53.570;9.964;2023-03-23T14:28:42;12.30;99.90
44817;DHT22;30529;53.570;9.964;2023-03-23T14:31:17;12.70;99.90
44817;DHT22;30529;53.570;9.964;2023-03-23T14:33:43;12.70;99.90
44817;DHT22;30529;53.570;9.964;2023-03-23T14:36:10;12.50;99.90
44817;DHT22;30529;53.570;9.964;2023-03-23T14:38:36;12.30;99.90
44817;DHT22;30529;53.570;9.964;2023-03-23T14:41:03;12.20;99.90
44817;DHT22;30529;53.570;9.964;2023-03-23T14:43:32;12.10;99.90
44817;DHT22;30529;53.570;9.964;2023-03-23T14:46:02;12.00;99.90
44817;DHT22;30529;53.570;9.964;2023-03-23T14:48:30;12.00;99.90
44817;DHT22;30529;53.570;9.964;2023-03-23T14:50:58;12.00;99.90
44817;DHT22;30529;53.570;9.964;2023-03-23T14:53:39;12.00;99.90
44817;DHT22;30529;53.570;9.964;2023-03-23T14:56:13;11.90;99.90
44817;DHT22;30529;53.570;9.964;2023-03-23T14:58:48;12.00;99.90
44817;DHT22;30529;53.570;9.964;2023-03-23T15:01:27;12.00;99.90
44817;DHT22;30529;53.570;9.964;2023-03-23T15:03:59;12.00;99.90
44817;DHT22;30529;53.570;9.964;2023-03-23T15:06:28;12.10;99.90
44817;DHT22;30529;53.570;9.964;2023-03-23T15:08:57;12.10;99.90
44817;DHT22;30529;53.570;9.964;2023-03-23T15:11:43;12.10;99.90
44817;DHT22;30529;53.570;9.964;2023-03-23T15:14:16;12.20;99.90
44817;DHT22;30529;53.570;9.964;2023-03-23T15:16:46;12.30;99.90
44817;DHT22;30529;53.570;9.964;2023-03-23T15:19:20;12.40;99.90
44817;DHT22;30529;53.570;9.964;2023-03-23T15:22:05;12.50;99.90
44817;DHT22;30529;53.570;9.964;2023-03-23T15:24:40;12.60;99.90
44817;DHT22;30529;53.570;9.964;2023-03-23T15:27:17;12.60;99.90
44817;DHT22;30529;53.570;9.964;2023-03-23T15:29:51;12.60;99.90
44817;DHT22;30529;53.570;9.964;2023-03-23T15:32:31;12.50;99.90
44817;DHT22;30529;53.570;9.964;2023-03-23T15:35:11;12.60;99.90
44817;DHT22;30529;53.570;9.964;2023-03-23T15:37:44;12.70;99.90
44817;DHT22;30529;53.570;9.964;2023-03-23T15:40:18;12.90;99.90
44817;DHT22;30529;53.570;9.964;2023-03-23T15:42:45;13.10;99.90
44817;DHT22;30529;53.570;9.964;2023-03-23T15:52:53;13.30;99.90
44817;DHT22;30529;53.570;9.964;2023-03-23T15:55:25;13.20;99.90
44817;DHT22;30529;53.570;9.964;2023-03-23T15:57:53;13.10;99.90
44817;DHT22;30529;53.570;9.964;2023-03-23T16:00:21;12.90;99.90
44817;DHT22;30529;53.570;9.964;2023-03-23T16:02:51;12.80;99.90
44817;DHT22;30529;53.570;9.964;2023-03-23T16:05:18;12.80;99.90
44817;DHT22;30529;53.570;9.964;2023-03-23T16:07:44;12.70;99.90
44817;DHT22;30529;53.570;9.964;2023-03-23T16:10:17;12.70;99.90
44817;DHT22;30529;53.570;9.964;2023-03-23T16:12:44;12.70;99.90
44817;DHT22;30529;53.570;9.964;2023-03-23T16:15:11;12.70;99.90
44817;DHT22;30529;53.570;9.964;2023-03-23T16:17:38;12.70;99.90
44817;DHT22;30529;53.570;9.964;2023-03-23T16:20:11;12.70;99.90
44817;DHT22;30529;53.570;9.964;2023-03-23T16:22:38;12.70;99.90
44817;DHT22;30529;53.570;9.964;2023-03-23T16:25:04;12.60;99.90
44817;DHT22;30529;53.570;9.964;2023-03-23T16:27:30;12.70;99.90
44817;DHT22;30529;53.570;9.964;2023-03-23T16:29:56;12.80;99.90
44817;DHT22;30529;53.570;9.964;2023-03-23T16:32:25;13.00;99.90
44817;DHT22;30529;53.570;9.964;2023-03-23T16:34:51;12.90;99.90
44817;DHT22;30529;53.570;9.964;2023-03-23T16:37:17;12.80;99.90
44817;DHT22;30529;53.570;9.964;2023-03-23T16:39:43;12.60;99.90
44817;DHT22;30529;53.570;9.964;2023-03-23T16:42:09;12.40;99.90
44817;DHT22;30529;53.570;9.964;2023-03-23T16:44:35;12.40;99.90
44817;DHT22;30529;53.570;9.964;2023-03-23T16:47:01;12.40;99.90
44817;DHT22;30529;53.570;9.964;2023-03-23T16:49:27;12.40;99.90
44817;DHT22;30529;53.570;9.964;2023-03-23T16:51:53;12.40;99.90
44817;DHT22;30529;53.570;9.964;2023-03-23T16:54:20;12.40;99.90
44817;DHT22;30529;53.570;9.964;2023-03-23T16:56:46;12.40;99.90
44817;DHT22;30529;53.570;9.964;2023-03-23T16:59:14;12.40;99.90
44817;DHT22;30529;53.570;9.964;2023-03-23T17:01:40;12.20;99.90
44817;DHT22;30529;53.570;9.964;2023-03-23T17:04:08;12.20;99.90
44817;DHT22;30529;53.570;9.964;2023-03-23T17:06:34;12.20;99.90
44817;DHT22;30529;53.570;9.964;2023-03-23T17:09:00;12.20;99.90
44817;DHT22;30529;53.570;9.964;2023-03-23T17:11:25;12.20;99.90
44817;DHT22;30529;53.570;9.964;2023-03-23T17:13:52;12.20;99.90
44817;DHT22;30529;53.570;9.964;2023-03-23T17:16:18;12.20;99.90
44817;DHT22;30529;53.570;9.964;2023-03-23T17:18:44;12.20;99.90
44817;DHT22;30529;53.570;9.964;2023-03-23T17:21:09;12.20;99.90
44817;DHT22;30529;53.570;9.964;2023-03-23T17:23:35;12.20;99.90
44817;DHT22;30529;53.570;9.964;2023-03-23T17:26:01;12.20;99.90
44817;DHT22;30529;53.570;9.964;2023-03-23T17:28:28;12.20;99.90
44817;DHT22;30529;53.570;9.964;2023-03-23T17:30:54;12.20;99.90
44817;DHT22;30529;53.570;9.964;2023-03-23T17:33:20;12.20;99.90
44817;DHT22;30529;53.570;9.964;2023-03-23T17:35:46;12.20;99.90
44817;DHT22;30529;53.570;9.964;2023-03-23T17:38:16;12.20;99.90